sensor_id;sensor_type;location;lat;lon;timestamp;temperature;humidity
43647;DHT22;56152;49.996;18.980;2023-05-09T00:04:56;4.10;88.10
43647;DHT22;56152;49.996;18.980;2023-05-09T00:09:59;4.10;89.00
43647;DHT22;56152;49.996;18.980;2023-05-09T00:15:05;4.00;88.40
43647;DHT22;56152;49.996;18.980;2023-05-09T00:20:09;4.00;88.60
43647;DHT22;56152;49.996;18.980;2023-05-09T00:25:11;4.00;88.70
43647;DHT22;56152;49.996;18.980;2023-05-09T00:30:19;3.90;88.70
43647;DHT22;56152;49.996;18.980;2023-05-09T00:35:21;3.90;88.80
43647;DHT22;56152;49.996;18.980;2023-05-09T00:40:26;3.80;88.90
43647;DHT22;56152;49.996;18.980;2023-05-09T00:45:32;3.80;89.10
43647;DHT22;56152;49.996;18.980;2023-05-09T00:50:33;3.70;89.20
43647;DHT22;56152;49.996;18.980;2023-05-09T00:55:39;3.70;89.50
43647;DHT22;56152;49.996;18.980;2023-05-09T01:00:44;3.60;89.60
43647;DHT22;56152;49.996;18.980;2023-05-09T01:05:53;3.60;89.80
43647;DHT22;56152;49.996;18.980;2023-05-09T01:11:01;3.60;90.00
43647;DHT22;56152;49.996;18.980;2023-05-09T01:16:13;3.60;90.00
43647;DHT22;56152;49.996;18.980;2023-05-09T01:21:22;3.60;90.00
43647;DHT22;56152;49.996;18.980;2023-05-09T01:26:32;3.50;90.10
43647;DHT22;56152;49.996;18.980;2023-05-09T01:31:40;3.40;90.20
43647;DHT22;56152;49.996;18.980;2023-05-09T01:36:43;3.40;90.20
43647;DHT22;56152;49.996;18.980;2023-05-09T01:41:46;3.40;90.30
43647;DHT22;56152;49.996;18.980;2023-05-09T01:46:52;3.40;90.30
43647;DHT22;56152;49.996;18.980;2023-05-09T01:51:55;3.40;90.30
43647;DHT22;56152;49.996;18.980;2023-05-09T01:57:00;3.40;90.40
43647;DHT22;56152;49.996;18.980;2023-05-09T02:02:05;3.40;90.40
43647;DHT22;56152;49.996;18.980;2023-05-09T02:07:09;3.40;90.50
43647;DHT22;56152;49.996;18.980;2023-05-09T02:12:12;3.40;90.50
43647;DHT22;56152;49.996;18.980;2023-05-09T02:17:19;3.40;90.60
43647;DHT22;56152;49.996;18.980;2023-05-09T02:22:24;3.40;90.60
43647;DHT22;56152;49.996;18.980;2023-05-09T02:27:34;3.40;90.60
43647;DHT22;56152;49.996;18.980;2023-05-09T02:32:42;3.40;90.60
43647;DHT22;56152;49.996;18.980;2023-05-09T02:37:47;3.40;90.70
43647;DHT22;56152;49.996;18.980;2023-05-09T02:42:50;3.40;90.80
43647;DHT22;56152;49.996;18.980;2023-05-09T02:47:54;3.40;90.80
43647;DHT22;56152;49.996;18.980;2023-05-09T02:52:57;3.30;90.90
43647;DHT22;56152;49.996;18.980;2023-05-09T02:58:01;3.20;91.00
43647;DHT22;56152;49.996;18.980;2023-05-09T03:03:05;3.20;91.00
43647;DHT22;56152;49.996;18.980;2023-05-09T03:08:09;3.20;91.10
43647;DHT22;56152;49.996;18.980;2023-05-09T03:13:12;3.10;91.50
43647;DHT22;56152;49.996;18.980;2023-05-09T03:18:18;3.10;91.60
43647;DHT22;56152;49.996;18.980;2023-05-09T03:23:20;3.00;91.30
43647;DHT22;56152;49.996;18.980;2023-05-09T03:28:22;3.00;91.40
43647;DHT22;56152;49.996;18.980;2023-05-09T03:33:27;3.00;91.40
43647;DHT22;56152;49.996;18.980;2023-05-09T03:38:29;3.00;91.50
43647;DHT22;56152;49.996;18.980;2023-05-09T03:43:32;3.00;91.50
43647;DHT22;56152;49.996;18.980;2023-05-09T03:48:37;3.00;91.50
43647;DHT22;56152;49.996;18.980;2023-05-09T03:53:39;3.10;91.50
43647;DHT22;56152;49.996;18.980;2023-05-09T03:58:43;3.20;91.50
43647;DHT22;56152;49.996;18.980;2023-05-09T04:03:49;3.30;91.60
43647;DHT22;56152;49.996;18.980;2023-05-09T04:08:52;3.40;91.60
43647;DHT22;56152;49.996;18.980;2023-05-09T04:13:54;3.70;91.50
43647;DHT22;56152;49.996;18.980;2023-05-09T04:18:58;3.90;91.30
43647;DHT22;56152;49.996;18.980;2023-05-09T04:24:00;4.20;91.10
43647;DHT22;56152;49.996;18.980;2023-05-09T04:29:08;4.50;91.00
43647;DHT22;56152;49.996;18.980;2023-05-09T04:34:12;4.70;90.80
43647;DHT22;56152;49.996;18.980;2023-05-09T04:39:16;5.10;90.60
43647;DHT22;56152;49.996;18.980;2023-05-09T04:44:23;5.40;90.40
43647;DHT22;56152;49.996;18.980;2023-05-09T04:49:32;5.60;90.30
43647;DHT22;56152;49.996;18.980;2023-05-09T04:54:34;5.70;90.10
43647;DHT22;56152;49.996;18.980;2023-05-09T04:59:39;5.90;90.10
43647;DHT22;56152;49.996;18.980;2023-05-09T05:04:43;6.20;89.70
43647;DHT22;56152;49.996;18.980;2023-05-09T05:09:45;6.40;89.30
43647;DHT22;56152;49.996;18.980;2023-05-09T05:14:47;6.60;89.50
43647;DHT22;56152;49.996;18.980;2023-05-09T05:19:51;7.00;88.90
43647;DHT22;56152;49.996;18.980;2023-05-09T05:24:53;7.40;88.00
43647;DHT22;56152;49.996;18.980;2023-05-09T05:30:00;7.60;87.20
43647;DHT22;56152;49.996;18.980;2023-05-09T05:35:06;7.80;86.60
43647;DHT22;56152;49.996;18.980;2023-05-09T05:40:13;8.00;86.50
43647;DHT22;56152;49.996;18.980;2023-05-09T05:45:17;8.40;85.70
43647;DHT22;56152;49.996;18.980;2023-05-09T05:50:22;8.70;85.30
43647;DHT22;56152;49.996;18.980;2023-05-09T05:55:25;9.00;84.60
43647;DHT22;56152;49.996;18.980;2023-05-09T06:00:30;9.20;84.10
43647;DHT22;56152;49.996;18.980;2023-05-09T06:05:40;9.60;83.10
43647;DHT22;56152;49.996;18.980;2023-05-09T06:10:42;9.60;82.60
43647;DHT22;56152;49.996;18.980;2023-05-09T06:15:46;9.80;81.30
43647;DHT22;56152;49.996;18.980;2023-05-09T06:20:49;10.00;82.00
43647;DHT22;56152;49.996;18.980;2023-05-09T06:25:52;10.30;81.70
43647;DHT22;56152;49.996;18.980;2023-05-09T06:30:55;10.50;80.80
43647;DHT22;56152;49.996;18.980;2023-05-09T06:36:00;10.80;80.10
43647;DHT22;56152;49.996;18.980;2023-05-09T06:41:05;10.80;79.20
43647;DHT22;56152;49.996;18.980;2023-05-09T06:46:10;10.80;79.40
43647;DHT22;56152;49.996;18.980;2023-05-09T06:51:15;10.90;79.00
43647;DHT22;56152;49.996;18.980;2023-05-09T06:56:35;11.10;78.60
43647;DHT22;56152;49.996;18.980;2023-05-09T07:01:37;11.10;78.00
43647;DHT22;56152;49.996;18.980;2023-05-09T07:06:49;11.10;77.70
43647;DHT22;56152;49.996;18.980;2023-05-09T07:11:51;11.40;77.70
43647;DHT22;56152;49.996;18.980;2023-05-09T07:16:54;11.70;76.60
43647;DHT22;56152;49.996;18.980;2023-05-09T07:22:05;11.90;76.10
43647;DHT22;56152;49.996;18.980;2023-05-09T07:27:10;12.10;75.20
43647;DHT22;56152;49.996;18.980;2023-05-09T07:32:12;12.20;75.00
43647;DHT22;56152;49.996;18.980;2023-05-09T07:37:16;12.40;74.40
43647;DHT22;56152;49.996;18.980;2023-05-09T07:42:19;12.50;74.20
43647;DHT22;56152;49.996;18.980;2023-05-09T07:47:21;12.80;73.90
43647;DHT22;56152;49.996;18.980;2023-05-09T07:52:29;12.80;73.20
43647;DHT22;56152;49.996;18.980;2023-05-09T07:57:31;12.70;72.90
43647;DHT22;56152;49.996;18.980;2023-05-09T08:02:33;12.80;73.00
43647;DHT22;56152;49.996;18.980;2023-05-09T08:07:38;13.10;73.10
43647;DHT22;56152;49.996;18.980;2023-05-09T08:12:43;13.40;72.60
43647;DHT22;56152;49.996;18.980;2023-05-09T08:17:45;13.60;71.40
43647;DHT22;56152;49.996;18.980;2023-05-09T08:22:48;13.80;70.80
43647;DHT22;56152;49.996;18.980;2023-05-09T08:27:50;13.80;70.40
43647;DHT22;56152;49.996;18.980;2023-05-09T08:32:54;13.80;70.70
43647;DHT22;56152;49.996;18.980;2023-05-09T08:38:01;14.10;70.00
43647;DHT22;56152;49.996;18.980;2023-05-09T08:43:06;14.30;69.70
43647;DHT22;56152;49.996;18.980;2023-05-09T08:48:08;14.40;69.20
43647;DHT22;56152;49.996;18.980;2023-05-09T08:53:17;14.80;68.70
43647;DHT22;56152;49.996;18.980;2023-05-09T08:58:22;14.80;67.30
43647;DHT22;56152;49.996;18.980;2023-05-09T09:03:26;14.70;67.20
43647;DHT22;56152;49.996;18.980;2023-05-09T09:08:33;14.80;67.20
43647;DHT22;56152;49.996;18.980;2023-05-09T09:13:37;14.90;67.20
43647;DHT22;56152;49.996;18.980;2023-05-09T09:18:42;15.20;66.90
43647;DHT22;56152;49.996;18.980;2023-05-09T09:23:48;15.40;66.20
43647;DHT22;56152;49.996;18.980;2023-05-09T09:28:50;15.50;66.10
43647;DHT22;56152;49.996;18.980;2023-05-09T09:33:58;15.70;65.20
43647;DHT22;56152;49.996;18.980;2023-05-09T09:39:04;15.90;65.40
43647;DHT22;56152;49.996;18.980;2023-05-09T09:44:07;15.90;64.90
43647;DHT22;56152;49.996;18.980;2023-05-09T09:49:09;15.80;64.30
43647;DHT22;56152;49.996;18.980;2023-05-09T09:54:14;16.00;64.40
43647;DHT22;56152;49.996;18.980;2023-05-09T09:59:18;16.10;64.10
43647;DHT22;56152;49.996;18.980;2023-05-09T10:04:21;16.40;63.50
43647;DHT22;56152;49.996;18.980;2023-05-09T10:09:29;16.60;62.60
43647;DHT22;56152;49.996;18.980;2023-05-09T10:14:32;16.70;61.90
43647;DHT22;56152;49.996;18.980;2023-05-09T10:19:43;16.70;61.20
43647;DHT22;56152;49.996;18.980;2023-05-09T10:24:58;16.70;60.80
43647;DHT22;56152;49.996;18.980;2023-05-09T10:30:12;16.70;60.30
43647;DHT22;56152;49.996;18.980;2023-05-09T10:35:15;16.80;60.30
43647;DHT22;56152;49.996;18.980;2023-05-09T10:40:30;16.80;57.10
43647;DHT22;56152;49.996;18.980;2023-05-09T10:45:33;16.90;60.20
43647;DHT22;56152;49.996;18.980;2023-05-09T10:50:41;17.00;60.90
43647;DHT22;56152;49.996;18.980;2023-05-09T10:55:56;17.30;59.90
43647;DHT22;56152;49.996;18.980;2023-05-09T11:01:01;17.60;59.60
43647;DHT22;56152;49.996;18.980;2023-05-09T11:06:06;17.50;58.50
43647;DHT22;56152;49.996;18.980;2023-05-09T11:11:21;17.40;58.60
43647;DHT22;56152;49.996;18.980;2023-05-09T11:16:25;17.50;57.90
43647;DHT22;56152;49.996;18.980;2023-05-09T11:21:27;17.50;57.90
43647;DHT22;56152;49.996;18.980;2023-05-09T11:26:32;17.40;57.70
43647;DHT22;56152;49.996;18.980;2023-05-09T11:31:36;17.70;58.00
43647;DHT22;56152;49.996;18.980;2023-05-09T11:37:06;18.20;56.70
43647;DHT22;56152;49.996;18.980;2023-05-09T11:42:16;18.10;55.70
43647;DHT22;56152;49.996;18.980;2023-05-09T11:47:18;17.90;56.20
43647;DHT22;56152;49.996;18.980;2023-05-09T11:52:22;17.90;56.20
43647;DHT22;56152;49.996;18.980;2023-05-09T11:57:27;17.80;56.40
43647;DHT22;56152;49.996;18.980;2023-05-09T12:02:32;18.10;56.60
43647;DHT22;56152;49.996;18.980;2023-05-09T12:07:35;18.30;55.40
43647;DHT22;56152;49.996;18.980;2023-05-09T12:12:43;18.40;55.60
43647;DHT22;56152;49.996;18.980;2023-05-09T12:17:46;18.40;54.90
43647;DHT22;56152;49.996;18.980;2023-05-09T12:22:55;18.20;55.10
43647;DHT22;56152;49.996;18.980;2023-05-09T12:27:58;18.20;55.00
43647;DHT22;56152;49.996;18.980;2023-05-09T12:33:01;18.10;54.90
43647;DHT22;56152;49.996;18.980;2023-05-09T12:38:04;18.00;53.70
43647;DHT22;56152;49.996;18.980;2023-05-09T12:43:10;18.10;53.60
43647;DHT22;56152;49.996;18.980;2023-05-09T12:48:21;18.20;53.70
43647;DHT22;56152;49.996;18.980;2023-05-09T12:53:24;18.10;53.50
43647;DHT22;56152;49.996;18.980;2023-05-09T12:58:30;18.00;53.90
43647;DHT22;56152;49.996;18.980;2023-05-09T13:03:33;18.20;53.60
43647;DHT22;56152;49.996;18.980;2023-05-09T13:08:38;18.00;53.50
43647;DHT22;56152;49.996;18.980;2023-05-09T13:13:53;18.00;53.80
43647;DHT22;56152;49.996;18.980;2023-05-09T13:19:01;18.00;54.10
43647;DHT22;56152;49.996;18.980;2023-05-09T13:24:05;18.20;53.10
43647;DHT22;56152;49.996;18.980;2023-05-09T13:29:16;18.00;52.80
43647;DHT22;56152;49.996;18.980;2023-05-09T13:34:18;17.90;52.80
43647;DHT22;56152;49.996;18.980;2023-05-09T13:39:20;18.00;53.10
43647;DHT22;56152;49.996;18.980;2023-05-09T13:44:25;18.10;52.80
43647;DHT22;56152;49.996;18.980;2023-05-09T13:49:27;18.30;51.90
43647;DHT22;56152;49.996;18.980;2023-05-09T13:54:30;18.30;52.00
43647;DHT22;56152;49.996;18.980;2023-05-09T13:59:41;18.20;52.20
43647;DHT22;56152;49.996;18.980;2023-05-09T14:04:43;18.20;51.70
43647;DHT22;56152;49.996;18.980;2023-05-09T14:09:47;18.00;51.70
43647;DHT22;56152;49.996;18.980;2023-05-09T14:14:52;18.10;51.30
43647;DHT22;56152;49.996;18.980;2023-05-09T14:19:56;18.10;51.00
43647;DHT22;56152;49.996;18.980;2023-05-09T14:24:57;17.90;51.20
43647;DHT22;56152;49.996;18.980;2023-05-09T14:30:02;18.10;51.10
43647;DHT22;56152;49.996;18.980;2023-05-09T14:35:07;18.20;51.10
43647;DHT22;56152;49.996;18.980;2023-05-09T14:40:10;18.40;51.20
43647;DHT22;56152;49.996;18.980;2023-05-09T14:45:15;18.40;50.60
43647;DHT22;56152;49.996;18.980;2023-05-09T14:50:19;18.30;50.40
43647;DHT22;56152;49.996;18.980;2023-05-09T14:55:22;18.30;50.80
43647;DHT22;56152;49.996;18.980;2023-05-09T15:00:37;18.30;50.50
43647;DHT22;56152;49.996;18.980;2023-05-09T15:05:40;18.20;49.50
43647;DHT22;56152;49.996;18.980;2023-05-09T15:10:44;18.10;50.60
43647;DHT22;56152;49.996;18.980;2023-05-09T15:15:50;18.10;50.50
43647;DHT22;56152;49.996;18.980;2023-05-09T15:20:54;18.20;50.40
43647;DHT22;56152;49.996;18.980;2023-05-09T15:25:58;18.20;49.80
43647;DHT22;56152;49.996;18.980;2023-05-09T15:31:07;18.20;49.70
43647;DHT22;56152;49.996;18.980;2023-05-09T15:36:10;17.90;49.40
43647;DHT22;56152;49.996;18.980;2023-05-09T15:41:12;18.00;49.90
43647;DHT22;56152;49.996;18.980;2023-05-09T15:46:19;18.10;49.70
43647;DHT22;56152;49.996;18.980;2023-05-09T15:51:21;18.20;49.30
43647;DHT22;56152;49.996;18.980;2023-05-09T15:56:24;18.30;49.20
43647;DHT22;56152;49.996;18.980;2023-05-09T16:01:31;18.70;49.40
43647;DHT22;56152;49.996;18.980;2023-05-09T16:06:33;18.80;48.80
43647;DHT22;56152;49.996;18.980;2023-05-09T16:11:36;18.70;48.10
43647;DHT22;56152;49.996;18.980;2023-05-09T16:16:42;18.00;47.90
43647;DHT22;56152;49.996;18.980;2023-05-09T16:21:47;17.40;48.30
43647;DHT22;56152;49.996;18.980;2023-05-09T16:26:51;16.90;49.10
43647;DHT22;56152;49.996;18.980;2023-05-09T16:31:56;16.60;49.50
43647;DHT22;56152;49.996;18.980;2023-05-09T16:36:59;16.40;49.80
43647;DHT22;56152;49.996;18.980;2023-05-09T16:42:02;16.40;49.90
43647;DHT22;56152;49.996;18.980;2023-05-09T16:47:06;16.40;49.90
43647;DHT22;56152;49.996;18.980;2023-05-09T16:52:08;16.10;49.70
43647;DHT22;56152;49.996;18.980;2023-05-09T16:57:12;15.80;49.90
43647;DHT22;56152;49.996;18.980;2023-05-09T17:02:18;15.60;50.40
43647;DHT22;56152;49.996;18.980;2023-05-09T17:07:21;15.30;50.50
43647;DHT22;56152;49.996;18.980;2023-05-09T17:12:24;15.10;50.70
43647;DHT22;56152;49.996;18.980;2023-05-09T17:17:28;14.90;51.00
43647;DHT22;56152;49.996;18.980;2023-05-09T17:22:30;14.70;51.50
43647;DHT22;56152;49.996;18.980;2023-05-09T17:27:32;14.60;51.90
43647;DHT22;56152;49.996;18.980;2023-05-09T17:32:37;14.40;52.00
43647;DHT22;56152;49.996;18.980;2023-05-09T17:37:41;14.30;53.00
43647;DHT22;56152;49.996;18.980;2023-05-09T17:42:43;14.10;52.70
43647;DHT22;56152;49.996;18.980;2023-05-09T17:47:47;13.90;53.50
43647;DHT22;56152;49.996;18.980;2023-05-09T17:52:49;13.70;53.20
43647;DHT22;56152;49.996;18.980;2023-05-09T17:57:51;13.60;53.40
43647;DHT22;56152;49.996;18.980;2023-05-09T18:02:56;13.40;53.80
43647;DHT22;56152;49.996;18.980;2023-05-09T18:08:00;13.30;54.20
43647;DHT22;56152;49.996;18.980;2023-05-09T18:13:03;13.10;54.60
43647;DHT22;56152;49.996;18.980;2023-05-09T18:18:10;12.90;54.90
43647;DHT22;56152;49.996;18.980;2023-05-09T18:23:13;12.70;55.00
43647;DHT22;56152;49.996;18.980;2023-05-09T18:28:15;12.60;55.20
43647;DHT22;56152;49.996;18.980;2023-05-09T18:33:27;12.40;55.50
43647;DHT22;56152;49.996;18.980;2023-05-09T18:38:30;12.40;55.70
43647;DHT22;56152;49.996;18.980;2023-05-09T18:43:38;12.40;55.50
43647;DHT22;56152;49.996;18.980;2023-05-09T18:48:50;12.40;55.50
43647;DHT22;56152;49.996;18.980;2023-05-09T18:53:53;12.40;55.60
43647;DHT22;56152;49.996;18.980;2023-05-09T18:58:56;12.30;55.90
43647;DHT22;56152;49.996;18.980;2023-05-09T19:04:01;12.20;56.20
43647;DHT22;56152;49.996;18.980;2023-05-09T19:09:04;12.10;56.50
43647;DHT22;56152;49.996;18.980;2023-05-09T19:14:11;12.00;56.80
43647;DHT22;56152;49.996;18.980;2023-05-09T19:19:15;11.80;57.10
43647;DHT22;56152;49.996;18.980;2023-05-09T19:24:18;11.70;57.40
43647;DHT22;56152;49.996;18.980;2023-05-09T19:29:21;11.60;57.70
43647;DHT22;56152;49.996;18.980;2023-05-09T19:34:25;11.50;57.90
43647;DHT22;56152;49.996;18.980;2023-05-09T19:39:27;11.40;58.30
43647;DHT22;56152;49.996;18.980;2023-05-09T19:44:33;11.30;58.50
43647;DHT22;56152;49.996;18.980;2023-05-09T19:49:37;11.20;58.70
43647;DHT22;56152;49.996;18.980;2023-05-09T19:54:43;11.10;59.00
43647;DHT22;56152;49.996;18.980;2023-05-09T19:59:51;11.00;59.30
43647;DHT22;56152;49.996;18.980;2023-05-09T20:04:57;10.90;59.60
43647;DHT22;56152;49.996;18.980;2023-05-09T20:09:59;10.80;59.70
43647;DHT22;56152;49.996;18.980;2023-05-09T20:15:10;10.70;59.90
43647;DHT22;56152;49.996;18.980;2023-05-09T20:20:15;10.70;60.30
43647;DHT22;56152;49.996;18.980;2023-05-09T20:25:17;10.60;60.40
43647;DHT22;56152;49.996;18.980;2023-05-09T20:30:20;10.40;60.60
43647;DHT22;56152;49.996;18.980;2023-05-09T20:35:24;10.40;60.90
43647;DHT22;56152;49.996;18.980;2023-05-09T20:40:27;10.30;61.20
43647;DHT22;56152;49.996;18.980;2023-05-09T20:45:32;10.20;61.60
43647;DHT22;56152;49.996;18.980;2023-05-09T20:50:39;10.10;61.80
43647;DHT22;56152;49.996;18.980;2023-05-09T20:55:41;10.00;61.90
43647;DHT22;56152;49.996;18.980;2023-05-09T21:00:44;10.00;62.10
43647;DHT22;56152;49.996;18.980;2023-05-09T21:05:51;9.90;62.30
43647;DHT22;56152;49.996;18.980;2023-05-09T21:10:53;9.80;62.50
43647;DHT22;56152;49.996;18.980;2023-05-09T21:16:04;9.80;62.70
43647;DHT22;56152;49.996;18.980;2023-05-09T21:21:12;9.70;62.90
43647;DHT22;56152;49.996;18.980;2023-05-09T21:26:14;9.70;63.10
43647;DHT22;56152;49.996;18.980;2023-05-09T21:31:17;9.60;63.30
43647;DHT22;56152;49.996;18.980;2023-05-09T21:36:24;9.50;63.70
43647;DHT22;56152;49.996;18.980;2023-05-09T21:41:28;9.40;63.90
43647;DHT22;56152;49.996;18.980;2023-05-09T21:46:38;9.40;64.20
43647;DHT22;56152;49.996;18.980;2023-05-09T21:51:46;9.30;64.40
43647;DHT22;56152;49.996;18.980;2023-05-09T21:56:48;9.30;64.70
43647;DHT22;56152;49.996;18.980;2023-05-09T22:01:51;9.20;64.80
43647;DHT22;56152;49.996;18.980;2023-05-09T22:06:54;9.10;65.10
43647;DHT22;56152;49.996;18.980;2023-05-09T22:12:00;9.10;65.30
43647;DHT22;56152;49.996;18.980;2023-05-09T22:17:02;8.90;65.60
43647;DHT22;56152;49.996;18.980;2023-05-09T22:22:05;8.80;65.80
43647;DHT22;56152;49.996;18.980;2023-05-09T22:27:10;8.70;65.90
43647;DHT22;56152;49.996;18.980;2023-05-09T22:32:12;8.60;66.10
43647;DHT22;56152;49.996;18.980;2023-05-09T22:37:16;8.50;66.40
43647;DHT22;56152;49.996;18.980;2023-05-09T22:42:19;8.40;66.70
43647;DHT22;56152;49.996;18.980;2023-05-09T22:47:20;8.30;67.00
43647;DHT22;56152;49.996;18.980;2023-05-09T22:52:28;8.20;67.30
43647;DHT22;56152;49.996;18.980;2023-05-09T22:57:30;8.10;67.50
43647;DHT22;56152;49.996;18.980;2023-05-09T23:02:33;8.00;67.90
43647;DHT22;56152;49.996;18.980;2023-05-09T23:07:37;7.90;68.30
43647;DHT22;56152;49.996;18.980;2023-05-09T23:12:39;7.80;68.50
43647;DHT22;56152;49.996;18.980;2023-05-09T23:17:41;7.70;68.80
43647;DHT22;56152;49.996;18.980;2023-05-09T23:22:46;7.70;69.00
43647;DHT22;56152;49.996;18.980;2023-05-09T23:27:48;7.60;69.20
43647;DHT22;56152;49.996;18.980;2023-05-09T23:32:51;7.50;69.50
43647;DHT22;56152;49.996;18.980;2023-05-09T23:37:58;7.40;69.70
43647;DHT22;56152;49.996;18.980;2023-05-09T23:43:03;7.30;70.00
43647;DHT22;56152;49.996;18.980;2023-05-09T23:48:05;7.20;70.30
43647;DHT22;56152;49.996;18.980;2023-05-09T23:53:11;7.20;70.60
43647;DHT22;56152;49.996;18.980;2023-05-09T23:58:13;7.10;70.80
